sensor_id;sensor_type;location;lat;lon;timestamp;pressure;altitude;pressure_sealevel;temperature;humidity
3590;BME280;1809;48.470;9.226;2023-12-28T00:01:13;-16300.56;;;4.72;100.00
3590;BME280;1809;48.470;9.226;2023-12-28T00:03:39;-16296.34;;;4.57;100.00
3590;BME280;1809;48.470;9.226;2023-12-28T00:06:06;-16293.09;;;4.45;100.00
3590;BME280;1809;48.470;9.226;2023-12-28T00:08:32;-16292.69;;;4.44;100.00
3590;BME280;1809;48.470;9.226;2023-12-28T00:10:58;-16291.00;;;4.38;100.00
3590;BME280;1809;48.470;9.226;2023-12-28T00:13:23;-16291.69;;;4.40;100.00
3590;BME280;1809;48.470;9.226;2023-12-28T00:15:49;-16295.50;;;4.54;100.00
3590;BME280;1809;48.470;9.226;2023-12-28T00:18:14;-16301.69;;;4.76;100.00
3590;BME280;1809;48.470;9.226;2023-12-28T00:20:40;-16305.91;;;4.91;100.00
3590;BME280;1809;48.470;9.226;2023-12-28T00:23:05;-16320.53;;;5.43;100.00
3590;BME280;1809;48.470;9.226;2023-12-28T00:25:31;-16330.41;;;5.79;100.00
3590;BME280;1809;48.470;9.226;2023-12-28T00:27:57;-16346.16;;;6.35;100.00
3590;BME280;1809;48.470;9.226;2023-12-28T00:30:23;-16354.19;;;6.64;100.00
3590;BME280;1809;48.470;9.226;2023-12-28T00:32:48;-16355.72;;;6.70;100.00
3590;BME280;1809;48.470;9.226;2023-12-28T00:35:14;-16362.19;;;6.93;100.00
3590;BME280;1809;48.470;9.226;2023-12-28T00:37:39;-16367.53;;;7.12;100.00
3590;BME280;1809;48.470;9.226;2023-12-28T00:40:05;-16371.75;;;7.27;100.00
3590;BME280;1809;48.470;9.226;2023-12-28T00:42:31;-16374.56;;;7.37;100.00
3590;BME280;1809;48.470;9.226;2023-12-28T00:44:56;-16375.69;;;7.41;100.00
3590;BME280;1809;48.470;9.226;2023-12-28T00:47:22;-16378.38;;;7.51;100.00
3590;BME280;1809;48.470;9.226;2023-12-28T00:49:47;-16378.78;;;7.52;100.00
3590;BME280;1809;48.470;9.226;2023-12-28T00:52:13;-16374.72;;;7.38;100.00
3590;BME280;1809;48.470;9.226;2023-12-28T00:54:38;-16376.13;;;7.43;100.00
3590;BME280;1809;48.470;9.226;2023-12-28T00:57:04;-16375.28;;;7.40;100.00
3590;BME280;1809;48.470;9.226;2023-12-28T00:59:29;-16372.88;;;7.31;100.00
3590;BME280;1809;48.470;9.226;2023-12-28T01:01:56;-16371.34;;;7.26;100.00
3590;BME280;1809;48.470;9.226;2023-12-28T01:04:21;-16367.13;;;7.11;100.00
3590;BME280;1809;48.470;9.226;2023-12-28T01:06:52;-16358.81;;;6.81;100.00
3590;BME280;1809;48.470;9.226;2023-12-28T01:09:17;-16368.25;;;7.15;100.00
3590;BME280;1809;48.470;9.226;2023-12-28T01:11:43;-16373.44;;;7.33;100.00
3590;BME280;1809;48.470;9.226;2023-12-28T01:14:08;-16412.53;;;8.74;100.00
3590;BME280;1809;48.470;9.226;2023-12-28T01:16:34;-16431.22;;;9.41;100.00
3590;BME280;1809;48.470;9.226;2023-12-28T01:19:01;-16448.09;;;10.01;100.00
3590;BME280;1809;48.470;9.226;2023-12-28T01:21:26;-16459.19;;;10.41;100.00
3590;BME280;1809;48.470;9.226;2023-12-28T01:23:51;-16465.94;;;10.65;100.00
3590;BME280;1809;48.470;9.226;2023-12-28T01:26:17;-16471.81;;;10.87;100.00
3590;BME280;1809;48.470;9.226;2023-12-28T01:28:43;-16473.66;;;10.93;96.76
3590;BME280;1809;48.470;9.226;2023-12-28T01:31:09;-16470.69;;;10.83;100.00
3590;BME280;1809;48.470;9.226;2023-12-28T01:33:34;-16457.50;;;10.35;100.00
3590;BME280;1809;48.470;9.226;2023-12-28T01:36:01;-16444.28;;;9.88;100.00
3590;BME280;1809;48.470;9.226;2023-12-28T01:38:27;-16434.47;;;9.52;100.00
3590;BME280;1809;48.470;9.226;2023-12-28T01:40:52;-16423.63;;;9.13;100.00
3590;BME280;1809;48.470;9.226;2023-12-28T01:43:18;-16413.09;;;8.76;100.00
3590;BME280;1809;48.470;9.226;2023-12-28T01:45:45;-16431.22;;;9.41;100.00
3590;BME280;1809;48.470;9.226;2023-12-28T01:48:10;-16435.88;;;9.57;100.00
3590;BME280;1809;48.470;9.226;2023-12-28T01:50:37;-16439.50;;;9.70;100.00
3590;BME280;1809;48.470;9.226;2023-12-28T01:53:03;-16449.63;;;10.07;100.00
3590;BME280;1809;48.470;9.226;2023-12-28T01:55:30;-16458.63;;;10.39;100.00
3590;BME280;1809;48.470;9.226;2023-12-28T01:57:56;-16465.09;;;10.62;99.29
3590;BME280;1809;48.470;9.226;2023-12-28T02:00:22;-16475.34;;;10.99;92.87
3590;BME280;1809;48.470;9.226;2023-12-28T02:02:48;-16477.59;;;11.07;91.14
3590;BME280;1809;48.470;9.226;2023-12-28T02:05:14;-16461.16;;;10.48;100.00
3590;BME280;1809;48.470;9.226;2023-12-28T02:07:40;-16444.16;;;9.87;100.00
3590;BME280;1809;48.470;9.226;2023-12-28T02:10:07;-16431.38;;;9.41;100.00
3590;BME280;1809;48.470;9.226;2023-12-28T02:12:33;-16416.19;;;8.87;100.00
3590;BME280;1809;48.470;9.226;2023-12-28T02:14:59;-16411.84;;;8.71;100.00
3590;BME280;1809;48.470;9.226;2023-12-28T02:17:47;-16404.38;;;8.44;100.00
3590;BME280;1809;48.470;9.226;2023-12-28T02:20:14;-16399.88;;;8.28;100.00
3590;BME280;1809;48.470;9.226;2023-12-28T02:22:40;-16392.84;;;8.03;100.00
3590;BME280;1809;48.470;9.226;2023-12-28T02:30:06;-16382.16;;;7.65;100.00
3590;BME280;1809;48.470;9.226;2023-12-28T02:35:30;-16383.84;;;7.71;100.00
3590;BME280;1809;48.470;9.226;2023-12-28T02:38:01;-16377.09;;;7.46;100.00
3590;BME280;1809;48.470;9.226;2023-12-28T02:40:28;-16374.00;;;7.35;100.00
3590;BME280;1809;48.470;9.226;2023-12-28T02:42:56;-16370.63;;;7.23;100.00
3590;BME280;1809;48.470;9.226;2023-12-28T02:45:22;-16367.53;;;7.12;100.00
3590;BME280;1809;48.470;9.226;2023-12-28T02:47:47;-16365.56;;;7.05;100.00
3590;BME280;1809;48.470;9.226;2023-12-28T02:50:13;-16369.22;;;7.18;100.00
3590;BME280;1809;48.470;9.226;2023-12-28T02:52:38;-16368.53;;;7.16;100.00
3590;BME280;1809;48.470;9.226;2023-12-28T02:55:04;-16366.13;;;7.07;100.00
3590;BME280;1809;48.470;9.226;2023-12-28T02:57:30;-16364.59;;;7.01;100.00
3590;BME280;1809;48.470;9.226;2023-12-28T02:59:55;-16361.34;;;6.90;100.00
3590;BME280;1809;48.470;9.226;2023-12-28T03:02:22;-16358.81;;;6.81;100.00
3590;BME280;1809;48.470;9.226;2023-12-28T03:04:47;-16358.25;;;6.79;100.00
3590;BME280;1809;48.470;9.226;2023-12-28T03:07:13;-16355.16;;;6.68;100.00
3590;BME280;1809;48.470;9.226;2023-12-28T03:09:38;-16356.56;;;6.73;100.00
3590;BME280;1809;48.470;9.226;2023-12-28T03:12:05;-16357.84;;;6.77;100.00
3590;BME280;1809;48.470;9.226;2023-12-28T03:14:31;-16361.78;;;6.91;100.00
3590;BME280;1809;48.470;9.226;2023-12-28T03:16:57;-16363.88;;;6.99;100.00
3590;BME280;1809;48.470;9.226;2023-12-28T03:19:22;-16382.72;;;7.67;100.00
3590;BME280;1809;48.470;9.226;2023-12-28T03:21:48;-16383.00;;;7.68;100.00
3590;BME280;1809;48.470;9.226;2023-12-28T03:24:13;-16388.91;;;7.89;100.00
3590;BME280;1809;48.470;9.226;2023-12-28T03:26:39;-16407.63;;;8.56;100.00
3590;BME280;1809;48.470;9.226;2023-12-28T03:29:08;-16419.28;;;8.98;100.00
3590;BME280;1809;48.470;9.226;2023-12-28T03:31:33;-16417.44;;;8.91;100.00
3590;BME280;1809;48.470;9.226;2023-12-28T03:33:59;-16419.56;;;8.99;100.00
3590;BME280;1809;48.470;9.226;2023-12-28T03:36:25;-16428.56;;;9.31;100.00
3590;BME280;1809;48.470;9.226;2023-12-28T03:38:50;-16428.69;;;9.32;100.00
3590;BME280;1809;48.470;9.226;2023-12-28T03:41:19;-16431.66;;;9.42;100.00
3590;BME280;1809;48.470;9.226;2023-12-28T03:43:45;-16440.22;;;9.73;100.00
3590;BME280;1809;48.470;9.226;2023-12-28T03:46:11;-16446.41;;;9.95;100.00
3590;BME280;1809;48.470;9.226;2023-12-28T03:48:37;-16449.78;;;10.07;100.00
3590;BME280;1809;48.470;9.226;2023-12-28T03:51:03;-16458.19;;;10.38;100.00
3590;BME280;1809;48.470;9.226;2023-12-28T03:53:30;-16460.16;;;10.45;100.00
3590;BME280;1809;48.470;9.226;2023-12-28T03:55:58;-16466.22;;;10.66;100.00
3590;BME280;1809;48.470;9.226;2023-12-28T03:58:23;-16470.00;;;10.80;99.35
3590;BME280;1809;48.470;9.226;2023-12-28T04:00:49;-16473.22;;;10.92;95.57
3590;BME280;1809;48.470;9.226;2023-12-28T04:03:14;-16470.41;;;10.82;96.67
3590;BME280;1809;48.470;9.226;2023-12-28T04:05:40;-16466.22;;;10.66;99.21
3590;BME280;1809;48.470;9.226;2023-12-28T04:08:05;-16460.31;;;10.45;100.00
3590;BME280;1809;48.470;9.226;2023-12-28T04:10:33;-16453.56;;;10.21;100.00
3590;BME280;1809;48.470;9.226;2023-12-28T04:12:59;-16453.00;;;10.19;100.00
3590;BME280;1809;48.470;9.226;2023-12-28T04:15:29;-16442.03;;;9.80;100.00
3590;BME280;1809;48.470;9.226;2023-12-28T04:17:54;-16435.88;;;9.57;100.00
3590;BME280;1809;48.470;9.226;2023-12-28T04:20:19;-16427.84;;;9.29;100.00
3590;BME280;1809;48.470;9.226;2023-12-28T04:22:45;-16419.84;;;9.00;100.00
3590;BME280;1809;48.470;9.226;2023-12-28T04:25:10;-16414.22;;;8.80;100.00
3590;BME280;1809;48.470;9.226;2023-12-28T04:27:37;-16409.03;;;8.61;100.00
3590;BME280;1809;48.470;9.226;2023-12-28T04:30:03;-16406.78;;;8.53;100.00
3590;BME280;1809;48.470;9.226;2023-12-28T04:32:32;-16407.19;;;8.54;100.00
3590;BME280;1809;48.470;9.226;2023-12-28T04:34:57;-16408.31;;;8.58;100.00
3590;BME280;1809;48.470;9.226;2023-12-28T04:37:23;-16415.34;;;8.84;100.00
3590;BME280;1809;48.470;9.226;2023-12-28T04:39:49;-16426.88;;;9.25;100.00
3590;BME280;1809;48.470;9.226;2023-12-28T04:42:14;-16432.78;;;9.46;100.00
3590;BME280;1809;48.470;9.226;2023-12-28T04:44:40;-16439.78;;;9.71;100.00
3590;BME280;1809;48.470;9.226;2023-12-28T04:47:05;-16446.53;;;9.96;100.00
3590;BME280;1809;48.470;9.226;2023-12-28T04:49:31;-16445.13;;;9.91;100.00
3590;BME280;1809;48.470;9.226;2023-12-28T04:51:56;-16453.16;;;10.19;100.00
3590;BME280;1809;48.470;9.226;2023-12-28T04:54:22;-16453.84;;;10.22;100.00
3590;BME280;1809;48.470;9.226;2023-12-28T04:56:48;-16459.19;;;10.41;100.00
3590;BME280;1809;48.470;9.226;2023-12-28T04:59:13;-16463.69;;;10.57;100.00
3590;BME280;1809;48.470;9.226;2023-12-28T05:01:45;-16470.84;;;10.83;100.00
3590;BME280;1809;48.470;9.226;2023-12-28T05:04:11;-16472.94;;;10.91;100.00
3590;BME280;1809;48.470;9.226;2023-12-28T05:06:37;-16475.75;;;11.01;100.00
3590;BME280;1809;48.470;9.226;2023-12-28T05:09:03;-16474.50;;;10.96;100.00
3590;BME280;1809;48.470;9.226;2023-12-28T05:11:30;-16469.28;;;10.77;100.00
3590;BME280;1809;48.470;9.226;2023-12-28T05:13:55;-16475.06;;;10.98;100.00
3590;BME280;1809;48.470;9.226;2023-12-28T05:16:22;-16474.06;;;10.95;100.00
3590;BME280;1809;48.470;9.226;2023-12-28T05:18:47;-16478.28;;;11.10;100.00
3590;BME280;1809;48.470;9.226;2023-12-28T05:21:13;-16478.56;;;11.11;100.00
3590;BME280;1809;48.470;9.226;2023-12-28T05:23:39;-16486.72;;;11.40;100.00
3590;BME280;1809;48.470;9.226;2023-12-28T05:26:05;-16487.00;;;11.41;100.00
3590;BME280;1809;48.470;9.226;2023-12-28T05:28:32;-16486.16;;;11.38;100.00
3590;BME280;1809;48.470;9.226;2023-12-28T05:30:58;-16487.69;;;11.44;100.00
3590;BME280;1809;48.470;9.226;2023-12-28T05:33:27;-16486.72;;;11.40;100.00
3590;BME280;1809;48.470;9.226;2023-12-28T05:35:52;-16490.34;;;11.53;100.00
3590;BME280;1809;48.470;9.226;2023-12-28T05:38:19;-16494.00;;;11.66;100.00
3590;BME280;1809;48.470;9.226;2023-12-28T05:40:44;-16493.03;;;11.63;100.00
3590;BME280;1809;48.470;9.226;2023-12-28T05:43:11;-16492.31;;;11.60;100.00
3590;BME280;1809;48.470;9.226;2023-12-28T05:45:36;-16494.28;;;11.67;100.00
3590;BME280;1809;48.470;9.226;2023-12-28T05:48:02;-16492.75;;;11.62;100.00
3590;BME280;1809;48.470;9.226;2023-12-28T05:50:28;-16490.91;;;11.55;100.00
3590;BME280;1809;48.470;9.226;2023-12-28T05:52:53;-16493.16;;;11.63;100.00
3590;BME280;1809;48.470;9.226;2023-12-28T05:55:20;-16492.47;;;11.61;100.00
3590;BME280;1809;48.470;9.226;2023-12-28T05:57:46;-16492.19;;;11.60;100.00
3590;BME280;1809;48.470;9.226;2023-12-28T06:00:13;-16493.72;;;11.65;100.00
3590;BME280;1809;48.470;9.226;2023-12-28T06:02:40;-16494.16;;;11.67;100.00
3590;BME280;1809;48.470;9.226;2023-12-28T06:05:06;-16489.22;;;11.49;100.00
3590;BME280;1809;48.470;9.226;2023-12-28T06:07:32;-16488.13;;;11.45;100.00
3590;BME280;1809;48.470;9.226;2023-12-28T06:09:59;-16489.50;;;11.50;100.00
3590;BME280;1809;48.470;9.226;2023-12-28T06:12:24;-16484.59;;;11.32;100.00
3590;BME280;1809;48.470;9.226;2023-12-28T06:14:49;-16484.31;;;11.31;100.00
3590;BME280;1809;48.470;9.226;2023-12-28T06:17:15;-16486.44;;;11.39;100.00
3590;BME280;1809;48.470;9.226;2023-12-28T06:19:43;-16485.31;;;11.35;100.00
3590;BME280;1809;48.470;9.226;2023-12-28T06:22:09;-16489.22;;;11.49;100.00
3590;BME280;1809;48.470;9.226;2023-12-28T06:24:38;-16491.06;;;11.56;100.00
3590;BME280;1809;48.470;9.226;2023-12-28T06:27:04;-16490.91;;;11.55;100.00
3590;BME280;1809;48.470;9.226;2023-12-28T06:29:30;-16492.75;;;11.62;100.00
3590;BME280;1809;48.470;9.226;2023-12-28T06:31:55;-16491.91;;;11.59;100.00
3590;BME280;1809;48.470;9.226;2023-12-28T06:34:21;-16482.78;;;11.26;100.00
3590;BME280;1809;48.470;9.226;2023-12-28T06:36:46;-16479.13;;;11.13;100.00
3590;BME280;1809;48.470;9.226;2023-12-28T06:39:12;-16477.72;;;11.08;100.00
3590;BME280;1809;48.470;9.226;2023-12-28T06:41:37;-16470.84;;;10.83;100.00
3590;BME280;1809;48.470;9.226;2023-12-28T06:44:03;-16466.78;;;10.68;100.00
3590;BME280;1809;48.470;9.226;2023-12-28T06:46:28;-16466.22;;;10.66;100.00
3590;BME280;1809;48.470;9.226;2023-12-28T06:48:53;-16468.44;;;10.74;100.00
3590;BME280;1809;48.470;9.226;2023-12-28T06:51:20;-16469.03;;;10.76;100.00
3590;BME280;1809;48.470;9.226;2023-12-28T06:53:47;-16467.75;;;10.72;100.00
3590;BME280;1809;48.470;9.226;2023-12-28T06:56:14;-16463.97;;;10.58;100.00
3590;BME280;1809;48.470;9.226;2023-12-28T06:58:40;-16460.59;;;10.46;100.00
3590;BME280;1809;48.470;9.226;2023-12-28T07:01:06;-16459.75;;;10.43;100.00
3590;BME280;1809;48.470;9.226;2023-12-28T07:03:34;-16461.44;;;10.49;100.00
3590;BME280;1809;48.470;9.226;2023-12-28T07:06:03;-16459.47;;;10.42;100.00
3590;BME280;1809;48.470;9.226;2023-12-28T07:08:29;-16460.88;;;10.47;100.00
3590;BME280;1809;48.470;9.226;2023-12-28T07:10:55;-16459.19;;;10.41;100.00
3590;BME280;1809;48.470;9.226;2023-12-28T07:13:20;-16457.78;;;10.36;100.00
3590;BME280;1809;48.470;9.226;2023-12-28T07:15:46;-16454.69;;;10.25;100.00
3590;BME280;1809;48.470;9.226;2023-12-28T07:18:11;-16452.72;;;10.18;100.00
3590;BME280;1809;48.470;9.226;2023-12-28T07:20:37;-16448.38;;;10.02;100.00
3590;BME280;1809;48.470;9.226;2023-12-28T07:23:03;-16448.94;;;10.04;100.00
3590;BME280;1809;48.470;9.226;2023-12-28T07:25:28;-16446.81;;;9.97;100.00
3590;BME280;1809;48.470;9.226;2023-12-28T07:27:54;-16447.09;;;9.98;100.00
3590;BME280;1809;48.470;9.226;2023-12-28T07:30:19;-16447.66;;;10.00;100.00
3590;BME280;1809;48.470;9.226;2023-12-28T07:32:45;-16449.50;;;10.06;100.00
3590;BME280;1809;48.470;9.226;2023-12-28T07:35:11;-16447.66;;;10.00;100.00
3590;BME280;1809;48.470;9.226;2023-12-28T07:37:37;-16448.50;;;10.03;100.00
3590;BME280;1809;48.470;9.226;2023-12-28T07:40:03;-16447.38;;;9.99;100.00
3590;BME280;1809;48.470;9.226;2023-12-28T07:42:29;-16449.91;;;10.08;100.00
3590;BME280;1809;48.470;9.226;2023-12-28T07:44:54;-16452.03;;;10.15;100.00
3590;BME280;1809;48.470;9.226;2023-12-28T07:47:20;-16447.09;;;9.98;100.00
3590;BME280;1809;48.470;9.226;2023-12-28T07:49:45;-16444.28;;;9.88;100.00
3590;BME280;1809;48.470;9.226;2023-12-28T07:52:11;-16444.84;;;9.90;100.00
3590;BME280;1809;48.470;9.226;2023-12-28T07:54:36;-16443.72;;;9.86;100.00
3590;BME280;1809;48.470;9.226;2023-12-28T07:57:02;-16440.34;;;9.73;100.00
3590;BME280;1809;48.470;9.226;2023-12-28T07:59:27;-16438.25;;;9.66;100.00
3590;BME280;1809;48.470;9.226;2023-12-28T08:01:53;-16437.97;;;9.65;100.00
3590;BME280;1809;48.470;9.226;2023-12-28T08:04:18;-16437.53;;;9.63;100.00
3590;BME280;1809;48.470;9.226;2023-12-28T08:06:44;-16437.00;;;9.61;100.00
3590;BME280;1809;48.470;9.226;2023-12-28T08:09:10;-16437.25;;;9.62;100.00
3590;BME280;1809;48.470;9.226;2023-12-28T08:11:35;-16440.91;;;9.76;100.00
3590;BME280;1809;48.470;9.226;2023-12-28T08:14:01;-16438.38;;;9.66;100.00
3590;BME280;1809;48.470;9.226;2023-12-28T08:16:27;-16442.59;;;9.82;100.00
3590;BME280;1809;48.470;9.226;2023-12-28T08:18:52;-16442.88;;;9.83;100.00
3590;BME280;1809;48.470;9.226;2023-12-28T08:21:18;-16440.91;;;9.76;100.00
3590;BME280;1809;48.470;9.226;2023-12-28T08:23:43;-16441.19;;;9.77;100.00
3590;BME280;1809;48.470;9.226;2023-12-28T08:26:09;-16443.44;;;9.85;100.00
3590;BME280;1809;48.470;9.226;2023-12-28T08:28:36;-16443.88;;;9.86;100.00
3590;BME280;1809;48.470;9.226;2023-12-28T08:31:02;-16445.97;;;9.94;100.00
3590;BME280;1809;48.470;9.226;2023-12-28T08:33:27;-16441.47;;;9.78;100.00
3590;BME280;1809;48.470;9.226;2023-12-28T08:35:53;-16443.16;;;9.84;100.00
3590;BME280;1809;48.470;9.226;2023-12-28T08:38:19;-16439.50;;;9.70;100.00
3590;BME280;1809;48.470;9.226;2023-12-28T08:40:44;-16440.06;;;9.72;100.00
3590;BME280;1809;48.470;9.226;2023-12-28T08:43:10;-16444.28;;;9.88;100.00
3590;BME280;1809;48.470;9.226;2023-12-28T08:45:36;-16445.97;;;9.94;100.00
3590;BME280;1809;48.470;9.226;2023-12-28T08:48:02;-16446.41;;;9.95;100.00
3590;BME280;1809;48.470;9.226;2023-12-28T08:50:27;-16452.72;;;10.18;100.00
3590;BME280;1809;48.470;9.226;2023-12-28T08:52:53;-16459.03;;;10.41;100.00
3590;BME280;1809;48.470;9.226;2023-12-28T08:55:18;-16467.63;;;10.71;100.00
3590;BME280;1809;48.470;9.226;2023-12-28T08:57:44;-16476.59;;;11.04;100.00
3590;BME280;1809;48.470;9.226;2023-12-28T09:00:13;-16478.28;;;11.10;100.00
3590;BME280;1809;48.470;9.226;2023-12-28T09:02:40;-16479.97;;;11.16;100.00
3590;BME280;1809;48.470;9.226;2023-12-28T09:05:06;-16478.16;;;11.09;100.00
3590;BME280;1809;48.470;9.226;2023-12-28T09:07:32;-16474.34;;;10.96;100.00
3590;BME280;1809;48.470;9.226;2023-12-28T09:09:58;-16472.25;;;10.88;100.00
3590;BME280;1809;48.470;9.226;2023-12-28T09:12:23;-16470.28;;;10.81;100.00
3590;BME280;1809;48.470;9.226;2023-12-28T09:14:49;-16469.72;;;10.79;100.00
3590;BME280;1809;48.470;9.226;2023-12-28T09:17:20;-16467.91;;;10.72;100.00
3590;BME280;1809;48.470;9.226;2023-12-28T09:19:46;-16470.97;;;10.84;100.00
3590;BME280;1809;48.470;9.226;2023-12-28T09:22:11;-16469.44;;;10.78;100.00
3590;BME280;1809;48.470;9.226;2023-12-28T09:24:37;-16468.88;;;10.76;100.00
3590;BME280;1809;48.470;9.226;2023-12-28T09:27:03;-16468.88;;;10.76;100.00
3590;BME280;1809;48.470;9.226;2023-12-28T09:29:28;-16472.81;;;10.90;100.00
3590;BME280;1809;48.470;9.226;2023-12-28T09:31:53;-16470.28;;;10.81;100.00
3590;BME280;1809;48.470;9.226;2023-12-28T09:34:19;-16469.28;;;10.77;100.00
3590;BME280;1809;48.470;9.226;2023-12-28T09:36:44;-16469.56;;;10.78;100.00
3590;BME280;1809;48.470;9.226;2023-12-28T09:39:10;-16468.59;;;10.75;100.00
3590;BME280;1809;48.470;9.226;2023-12-28T09:41:39;-16472.94;;;10.91;100.00
3590;BME280;1809;48.470;9.226;2023-12-28T09:44:12;-16471.41;;;10.85;100.00
3590;BME280;1809;48.470;9.226;2023-12-28T09:46:41;-16470.56;;;10.82;100.00
3590;BME280;1809;48.470;9.226;2023-12-28T09:49:07;-16470.28;;;10.81;100.00
3590;BME280;1809;48.470;9.226;2023-12-28T09:51:33;-16470.41;;;10.82;100.00
3590;BME280;1809;48.470;9.226;2023-12-28T09:53:59;-16473.78;;;10.94;100.00
3590;BME280;1809;48.470;9.226;2023-12-28T09:56:24;-16475.75;;;11.01;100.00
3590;BME280;1809;48.470;9.226;2023-12-28T09:58:53;-16477.88;;;11.08;100.00
3590;BME280;1809;48.470;9.226;2023-12-28T10:01:20;-16479.69;;;11.15;100.00
3590;BME280;1809;48.470;9.226;2023-12-28T10:03:46;-16479.28;;;11.13;100.00
3590;BME280;1809;48.470;9.226;2023-12-28T10:06:11;-16480.25;;;11.17;100.00
3590;BME280;1809;48.470;9.226;2023-12-28T10:08:47;-16485.31;;;11.35;100.00
3590;BME280;1809;48.470;9.226;2023-12-28T10:11:18;-16484.75;;;11.33;100.00
3590;BME280;1809;48.470;9.226;2023-12-28T10:13:45;-16486.56;;;11.40;100.00
3590;BME280;1809;48.470;9.226;2023-12-28T10:16:13;-16489.81;;;11.51;100.00
3590;BME280;1809;48.470;9.226;2023-12-28T10:18:42;-16498.38;;;11.82;100.00
3590;BME280;1809;48.470;9.226;2023-12-28T10:21:08;-16506.94;;;12.13;100.00
3590;BME280;1809;48.470;9.226;2023-12-28T10:23:34;-16508.91;;;12.20;100.00
3590;BME280;1809;48.470;9.226;2023-12-28T10:26:00;-16514.22;;;12.39;100.00
3590;BME280;1809;48.470;9.226;2023-12-28T10:28:26;-16514.22;;;12.39;100.00
3590;BME280;1809;48.470;9.226;2023-12-28T10:30:55;-16518.44;;;12.54;100.00
3590;BME280;1809;48.470;9.226;2023-12-28T10:33:22;-16520.69;;;12.62;100.00
3590;BME280;1809;48.470;9.226;2023-12-28T10:35:50;-16523.75;;;12.73;100.00
3590;BME280;1809;48.470;9.226;2023-12-28T10:38:16;-16524.47;;;12.76;100.00
3590;BME280;1809;48.470;9.226;2023-12-28T10:40:46;-16520.97;;;12.63;100.00
3590;BME280;1809;48.470;9.226;2023-12-28T10:43:15;-16523.34;;;12.72;100.00
3590;BME280;1809;48.470;9.226;2023-12-28T10:45:42;-16522.91;;;12.70;100.00
3590;BME280;1809;48.470;9.226;2023-12-28T10:48:11;-16522.09;;;12.67;100.00
3590;BME280;1809;48.470;9.226;2023-12-28T10:50:47;-16526.00;;;12.81;100.00
3590;BME280;1809;48.470;9.226;2023-12-28T10:53:30;-16527.13;;;12.85;100.00
3590;BME280;1809;48.470;9.226;2023-12-28T11:01:31;-16533.31;;;13.08;100.00
3590;BME280;1809;48.470;9.226;2023-12-28T11:06:47;-16535.56;;;13.16;100.00
3590;BME280;1809;48.470;9.226;2023-12-28T11:09:15;-16538.50;;;13.26;100.00
3590;BME280;1809;48.470;9.226;2023-12-28T11:11:43;-16538.22;;;13.25;100.00
3590;BME280;1809;48.470;9.226;2023-12-28T11:14:09;-16540.88;;;13.35;100.00
3590;BME280;1809;48.470;9.226;2023-12-28T11:16:34;-16539.47;;;13.30;100.00
3590;BME280;1809;48.470;9.226;2023-12-28T11:19:00;-16544.13;;;13.46;100.00
3590;BME280;1809;48.470;9.226;2023-12-28T11:21:26;-16549.44;;;13.66;100.00
3590;BME280;1809;48.470;9.226;2023-12-28T11:23:53;-16554.78;;;13.85;100.00
3590;BME280;1809;48.470;9.226;2023-12-28T11:26:20;-16554.22;;;13.83;100.00
3590;BME280;1809;48.470;9.226;2023-12-28T11:28:46;-16555.75;;;13.88;100.00
3590;BME280;1809;48.470;9.226;2023-12-28T11:31:16;-16559.13;;;14.00;100.00
3590;BME280;1809;48.470;9.226;2023-12-28T11:33:50;-16555.47;;;13.87;100.00
3590;BME280;1809;48.470;9.226;2023-12-28T11:36:25;-16561.66;;;14.10;100.00
3590;BME280;1809;48.470;9.226;2023-12-28T11:38:56;-16563.03;;;14.15;100.00
3590;BME280;1809;48.470;9.226;2023-12-28T11:41:26;-16561.66;;;14.10;100.00
3590;BME280;1809;48.470;9.226;2023-12-28T11:43:53;-16559.53;;;14.02;100.00
3590;BME280;1809;48.470;9.226;2023-12-28T11:46:20;-16558.13;;;13.97;100.00
3590;BME280;1809;48.470;9.226;2023-12-28T11:48:48;-16558.28;;;13.97;100.00
3590;BME280;1809;48.470;9.226;2023-12-28T11:51:14;-16556.03;;;13.89;100.00
3590;BME280;1809;48.470;9.226;2023-12-28T11:53:41;-16555.19;;;13.86;100.00
3590;BME280;1809;48.470;9.226;2023-12-28T11:56:06;-16556.59;;;13.91;100.00
3590;BME280;1809;48.470;9.226;2023-12-28T11:58:35;-16552.81;;;13.78;100.00
3590;BME280;1809;48.470;9.226;2023-12-28T12:01:01;-16555.91;;;13.89;100.00
3590;BME280;1809;48.470;9.226;2023-12-28T12:03:27;-16550.00;;;13.68;100.00
3590;BME280;1809;48.470;9.226;2023-12-28T12:05:52;-16551.69;;;13.74;100.00
3590;BME280;1809;48.470;9.226;2023-12-28T12:08:19;-16552.38;;;13.76;100.00
3590;BME280;1809;48.470;9.226;2023-12-28T12:10:44;-16554.34;;;13.83;100.00
3590;BME280;1809;48.470;9.226;2023-12-28T12:13:10;-16557.00;;;13.93;100.00
3590;BME280;1809;48.470;9.226;2023-12-28T12:15:36;-16557.56;;;13.95;100.00
3590;BME280;1809;48.470;9.226;2023-12-28T12:18:02;-16554.34;;;13.83;100.00
3590;BME280;1809;48.470;9.226;2023-12-28T12:20:28;-16548.59;;;13.63;100.00
3590;BME280;1809;48.470;9.226;2023-12-28T12:22:57;-16547.19;;;13.58;100.00
3590;BME280;1809;48.470;9.226;2023-12-28T12:25:23;-16545.94;;;13.53;100.00
3590;BME280;1809;48.470;9.226;2023-12-28T12:27:48;-16544.81;;;13.49;100.00
3590;BME280;1809;48.470;9.226;2023-12-28T12:30:14;-16547.63;;;13.59;100.00
3590;BME280;1809;48.470;9.226;2023-12-28T12:32:39;-16543.00;;;13.42;100.00
3590;BME280;1809;48.470;9.226;2023-12-28T12:35:09;-16539.47;;;13.30;100.00
3590;BME280;1809;48.470;9.226;2023-12-28T12:37:35;-16539.63;;;13.30;100.00
3590;BME280;1809;48.470;9.226;2023-12-28T12:40:03;-16552.94;;;13.78;100.00
3590;BME280;1809;48.470;9.226;2023-12-28T12:42:28;-16555.47;;;13.87;100.00
3590;BME280;1809;48.470;9.226;2023-12-28T12:44:54;-16558.56;;;13.98;100.00
3590;BME280;1809;48.470;9.226;2023-12-28T12:47:19;-16559.81;;;14.03;100.00
3590;BME280;1809;48.470;9.226;2023-12-28T12:49:45;-16558.97;;;14.00;100.00
3590;BME280;1809;48.470;9.226;2023-12-28T12:52:10;-16560.25;;;14.05;100.00
3590;BME280;1809;48.470;9.226;2023-12-28T12:54:36;-16559.13;;;14.00;100.00
3590;BME280;1809;48.470;9.226;2023-12-28T12:57:01;-16554.22;;;13.83;100.00
3590;BME280;1809;48.470;9.226;2023-12-28T12:59:27;-16543.00;;;13.42;100.00
3590;BME280;1809;48.470;9.226;2023-12-28T13:01:53;-16539.22;;;13.29;100.00
3590;BME280;1809;48.470;9.226;2023-12-28T13:04:19;-16533.72;;;13.09;100.00
3590;BME280;1809;48.470;9.226;2023-12-28T13:06:44;-16531.91;;;13.03;100.00
3590;BME280;1809;48.470;9.226;2023-12-28T13:09:10;-16527.41;;;12.86;100.00
3590;BME280;1809;48.470;9.226;2023-12-28T13:11:37;-16524.03;;;12.74;100.00
3590;BME280;1809;48.470;9.226;2023-12-28T13:14:02;-16522.22;;;12.68;100.00
3590;BME280;1809;48.470;9.226;2023-12-28T13:16:28;-16517.03;;;12.49;100.00